Time;durP1;ratioP1;P1;durP2;ratioP2;P2;SDS_P1;SDS_P2;PMS_P1;PMS_P2;Temp;Humidity;BMP_temperature;BMP_pressure;BME280_temperature;BME280_humidity;BME280_pressure;Samples;Min_cycle;Max_cycle;Signal;HPM_P1;HPM_P2
2023/06/18 00:01:16;;;;;;;9.47;5.13;;;;;;;16.59;100.00;98739.38;5111916;28;20713;-69
2023/06/18 00:03:43;;;;;;;8.20;4.83;;;;;;;16.58;100.00;98735.19;5112193;28;20732;-70
2023/06/18 00:06:10;;;;;;;8.23;4.80;;;;;;;16.59;100.00;98736.00;5112010;27;20607;-68
2023/06/18 00:08:37;;;;;;;8.37;5.03;;;;;;;16.62;100.00;98733.91;5111998;28;20203;-68
2023/06/18 00:11:03;;;;;;;8.53;4.80;;;;;;;16.67;100.00;98730.84;5111858;28;20278;-68
2023/06/18 00:13:31;;;;;;;9.47;5.47;;;;;;;16.65;100.00;98727.63;5112105;28;20202;-68
2023/06/18 00:15:58;;;;;;;10.10;5.20;;;;;;;16.63;100.00;98734.69;5111985;28;20243;-68
2023/06/18 00:18:25;;;;;;;10.70;5.63;;;;;;;16.63;100.00;98729.53;5111775;28;20226;-70
2023/06/18 00:20:52;;;;;;;10.93;5.87;;;;;;;16.64;100.00;98731.97;5111965;28;20264;-69
2023/06/18 00:23:19;;;;;;;10.70;5.97;;;;;;;16.63;100.00;98724.38;5112069;28;20282;-70
2023/06/18 00:25:46;;;;;;;8.43;5.40;;;;;;;16.61;100.00;98721.97;5111759;28;20219;-70
2023/06/18 00:28:13;;;;;;;9.37;5.80;;;;;;;16.61;100.00;98718.56;5111712;28;20201;-69
2023/06/18 00:30:41;;;;;;;9.37;5.63;;;;;;;16.66;100.00;98729.22;5111672;28;20590;-68
2023/06/18 00:33:08;;;;;;;9.17;5.60;;;;;;;16.64;100.00;98728.56;5111682;28;20202;-70
2023/06/18 00:35:35;;;;;;;9.27;5.60;;;;;;;16.69;100.00;98729.72;5111564;28;20589;-68
2023/06/18 00:38:02;;;;;;;10.13;5.27;;;;;;;16.71;100.00;98738.09;5111461;28;20200;-69
2023/06/18 00:40:29;;;;;;;9.77;5.47;;;;;;;16.77;100.00;98728.94;5111509;28;20247;-69
2023/06/18 00:42:56;;;;;;;8.77;5.43;;;;;;;16.75;100.00;98729.09;5111567;28;20269;-68
2023/06/18 00:45:23;;;;;;;10.50;5.83;;;;;;;16.77;100.00;98728.16;5111370;28;20236;-68
2023/06/18 00:47:52;;;;;;;9.40;5.90;;;;;;;16.81;100.00;98729.44;5111146;28;20713;-69
2023/06/18 00:50:19;;;;;;;10.07;5.87;;;;;;;16.82;100.00;98728.50;5111342;28;20213;-69
2023/06/18 00:52:47;;;;;;;8.80;5.37;;;;;;;16.83;100.00;98719.75;5111237;28;20754;-70
2023/06/18 00:55:16;;;;;;;10.50;5.70;;;;;;;16.85;100.00;98734.13;5110942;28;20207;-68
2023/06/18 00:57:45;;;;;;;10.70;5.87;;;;;;;16.89;100.00;98732.03;5111251;28;20188;-69
2023/06/18 01:00:13;;;;;;;9.97;5.77;;;;;;;16.94;100.00;98743.50;5110993;28;20235;-69
2023/06/18 01:02:45;;;;;;;10.00;5.90;;;;;;;16.98;100.00;98739.63;5110888;28;20600;-70
2023/06/18 01:05:14;;;;;;;9.77;6.00;;;;;;;17.02;100.00;98739.31;5110917;28;20681;-68
2023/06/18 01:07:43;;;;;;;11.17;6.30;;;;;;;17.02;100.00;98744.50;5110772;28;20236;-69
2023/06/18 01:10:13;;;;;;;9.27;5.63;;;;;;;17.01;100.00;98742.84;5110713;28;20257;-68
2023/06/18 01:12:48;;;;;;;8.63;5.10;;;;;;;17.02;100.00;98740.13;5110988;28;20847;-69
2023/06/18 01:15:16;;;;;;;10.00;6.10;;;;;;;17.05;100.00;98744.16;5110674;28;20227;-70
2023/06/18 01:17:48;;;;;;;10.53;5.63;;;;;;;17.05;100.00;98744.16;5110753;28;20226;-68
2023/06/18 01:20:18;;;;;;;12.00;5.43;;;;;;;17.06;100.00;98735.44;5110359;28;20240;-69
2023/06/18 01:22:49;;;;;;;11.53;5.90;;;;;;;17.04;100.00;98737.38;5110613;28;20424;-68
2023/06/18 01:25:18;;;;;;;9.37;5.77;;;;;;;17.02;100.00;98739.31;5110614;28;20574;-69
2023/06/18 01:27:47;;;;;;;9.47;5.60;;;;;;;17.00;100.00;98747.22;5110337;28;20195;-69
2023/06/18 01:30:15;;;;;;;10.67;6.10;;;;;;;17.01;100.00;98740.28;5110379;28;20194;-69
2023/06/18 01:32:42;;;;;;;11.43;6.03;;;;;;;17.05;100.00;98744.16;5110302;28;20243;-69
2023/06/18 01:35:14;;;;;;;10.27;6.00;;;;;;;17.05;100.00;98741.59;5110613;28;20220;-68
2023/06/18 01:37:54;;;;;;;16.37;6.07;;;;;;;17.04;100.00;98743.34;5110530;28;20705;-68
2023/06/18 01:40:32;;;;;;;10.50;5.60;;;;;;;17.00;100.00;98746.41;5110607;28;20230;-69
2023/06/18 01:43:08;;;;;;;9.10;5.37;;;;;;;16.96;100.00;98736.41;5110357;28;20210;-69
2023/06/18 01:45:42;;;;;;;11.80;5.67;;;;;;;16.97;100.00;98743.19;5110443;28;20273;-69
2023/06/18 01:48:10;;;;;;;10.17;5.60;;;;;;;16.91;100.00;98750.78;5110209;28;20194;-69
2023/06/18 01:50:39;;;;;;;12.47;5.77;;;;;;;16.81;100.00;98740.56;5110348;28;20224;-69
2023/06/18 01:53:08;;;;;;;9.17;5.60;;;;;;;16.82;100.00;98741.41;5110076;28;20206;-68
2023/06/18 01:55:37;;;;;;;9.23;4.90;;;;;;;16.83;100.00;98741.22;5109710;28;20287;-68
2023/06/18 01:58:04;;;;;;;9.70;5.17;;;;;;;16.81;100.00;98747.50;5110324;28;20191;-68
2023/06/18 02:00:32;;;;;;;8.87;5.60;;;;;;;16.80;100.00;98749.28;5110280;28;20312;-69
2023/06/18 02:02:59;;;;;;;9.93;5.63;;;;;;;16.74;100.00;98752.47;5110130;28;20694;-68
2023/06/18 02:05:26;;;;;;;11.33;5.70;;;;;;;16.71;100.00;98745.06;5110186;28;20216;-68
2023/06/18 02:07:52;;;;;;;9.63;5.73;;;;;;;16.73;100.00;98756.03;5109995;28;20633;-68
2023/06/18 02:10:21;;;;;;;9.27;5.63;;;;;;;16.73;100.00;98756.03;5110132;28;20203;-69
2023/06/18 02:12:48;;;;;;;10.33;5.37;;;;;;;16.72;100.00;98756.97;5109751;28;20195;-69
2023/06/18 02:15:15;;;;;;;10.77;5.73;;;;;;;16.69;100.00;98760.69;5109975;28;20259;-69
2023/06/18 02:17:42;;;;;;;10.40;5.83;;;;;;;16.69;100.00;98754.72;5110102;28;20209;-68
2023/06/18 02:20:10;;;;;;;9.67;5.43;;;;;;;16.69;100.00;98749.56;5110134;28;20236;-68
2023/06/18 02:22:37;;;;;;;10.97;6.20;;;;;;;16.71;100.00;98755.38;5109875;28;20202;-68
2023/06/18 02:25:04;;;;;;;11.53;6.07;;;;;;;16.70;100.00;98756.34;5110182;28;20278;-68
2023/06/18 02:27:33;;;;;;;13.77;5.80;;;;;;;16.67;100.00;98759.25;5108589;28;20219;-69
2023/06/18 02:30:02;;;;;;;10.23;5.83;;;;;;;16.66;100.00;98755.03;5109874;28;20194;-69
2023/06/18 02:32:31;;;;;;;10.47;5.57;;;;;;;16.64;100.00;98764.69;5109629;28;20216;-68
2023/06/18 02:34:59;;;;;;;10.47;5.57;;;;;;;16.61;100.00;98762.44;5110001;28;20653;-68
2023/06/18 02:37:27;;;;;;;8.97;5.73;;;;;;;16.59;100.00;98761.81;5109515;28;20252;-69
2023/06/18 02:39:54;;;;;;;16.00;6.27;;;;;;;16.57;100.00;98764.53;5109625;28;20234;-69
2023/06/18 02:42:22;;;;;;;10.77;5.60;;;;;;;16.56;100.00;98762.13;5109397;28;20275;-69
2023/06/18 02:44:50;;;;;;;10.13;6.00;;;;;;;16.53;100.00;98766.63;5109813;28;20215;-68
2023/06/18 02:47:17;;;;;;;10.67;5.57;;;;;;;16.52;100.00;98770.19;5109341;28;20605;-68
2023/06/18 02:49:43;;;;;;;9.20;5.57;;;;;;;16.48;100.00;98776.59;5109506;28;20211;-68
2023/06/18 02:52:10;;;;;;;10.07;5.90;;;;;;;16.41;100.00;98773.03;5109291;28;20233;-69
2023/06/18 02:54:38;;;;;;;9.00;5.33;;;;;;;16.39;100.00;98780.13;5109966;28;20206;-68
2023/06/18 02:57:05;;;;;;;13.03;5.80;;;;;;;16.31;100.00;98774.91;5109618;28;20774;-68
2023/06/18 02:59:32;;;;;;;10.33;6.37;;;;;;;16.19;100.00;98776.16;5109481;28;20241;-68
2023/06/18 03:02:00;;;;;;;11.80;6.00;;;;;;;16.21;100.00;98776.81;5109520;28;20750;-69
2023/06/18 03:04:27;;;;;;;9.87;5.87;;;;;;;16.21;100.00;98776.81;5109691;28;20396;-68
2023/06/18 03:06:58;;;;;;;10.47;6.67;;;;;;;16.19;100.00;98781.31;5111631;28;20567;-69
2023/06/18 03:09:25;;;;;;;12.03;6.23;;;;;;;16.19;100.00;98776.97;5113339;28;20593;-69
2023/06/18 03:11:52;;;;;;;11.33;6.60;;;;;;;16.23;100.00;98785.19;5112982;28;20542;-69
2023/06/18 03:14:21;;;;;;;11.40;6.70;;;;;;;16.28;100.00;98782.97;5113150;28;20202;-68
2023/06/18 03:16:48;;;;;;;13.67;7.07;;;;;;;16.30;100.00;98784.44;5113299;28;20223;-68
2023/06/18 03:19:16;;;;;;;15.90;7.10;;;;;;;16.28;100.00;98785.53;5113415;28;20693;-69
2023/06/18 03:21:43;;;;;;;11.73;6.17;;;;;;;16.30;100.00;98792.19;5112795;28;20282;-69
2023/06/18 03:24:11;;;;;;;10.40;6.70;;;;;;;16.32;100.00;98786.88;5113021;28;20230;-68
2023/06/18 03:26:38;;;;;;;12.50;6.43;;;;;;;16.33;100.00;98793.63;5112888;28;20224;-68
2023/06/18 03:29:04;;;;;;;11.30;6.27;;;;;;;16.36;100.00;98801.06;5113481;28;20226;-68
2023/06/18 03:31:32;;;;;;;11.63;6.40;;;;;;;16.39;100.00;98802.53;5112646;28;20239;-69
2023/06/18 03:34:01;;;;;;;13.73;6.53;;;;;;;16.42;100.00;98797.88;5112806;28;20209;-69
2023/06/18 03:36:29;;;;;;;11.17;6.67;;;;;;;16.46;100.00;98801.78;5112494;28;20228;-69
2023/06/18 03:38:56;;;;;;;12.50;7.43;;;;;;;16.52;100.00;98801.16;5112924;28;20205;-68
2023/06/18 03:41:23;;;;;;;12.57;6.33;;;;;;;16.55;100.00;98805.19;5112529;28;20721;-68
2023/06/18 03:43:50;;;;;;;12.10;6.57;;;;;;;16.63;100.00;98801.81;5112634;28;20196;-69
2023/06/18 03:46:17;;;;;;;14.17;7.37;;;;;;;16.64;100.00;98800.84;5112566;28;20239;-69
2023/06/18 03:48:44;;;;;;;13.63;7.47;;;;;;;16.70;100.00;98802.81;5112625;28;20199;-69
2023/06/18 03:51:11;;;;;;;11.00;6.67;;;;;;;16.75;100.00;98800.56;5112394;28;20222;-68
2023/06/18 03:53:39;;;;;;;11.67;6.63;;;;;;;16.78;100.00;98805.44;5112620;28;20207;-69
2023/06/18 03:56:06;;;;;;;14.20;7.10;;;;;;;16.84;100.00;98806.56;5112394;28;20236;-69
2023/06/18 03:58:33;;;;;;;12.57;7.23;;;;;;;16.89;100.00;98801.75;5111693;28;20199;-68
2023/06/18 04:01:00;;;;;;;12.23;7.13;;;;;;;16.98;100.00;98806.75;5112423;28;20239;-69
2023/06/18 04:03:27;;;;;;;16.57;7.43;;;;;;;17.01;100.00;98804.84;5112088;28;20199;-69
2023/06/18 04:05:54;;;;;;;12.40;7.57;;;;;;;17.05;100.00;98806.16;5112181;28;20224;-68
2023/06/18 04:08:21;;;;;;;12.00;7.40;;;;;;;17.04;100.00;98800.16;5112161;27;20573;-68
2023/06/18 04:10:49;;;;;;;14.40;6.93;;;;;;;17.12;100.00;98804.53;5112200;28;20231;-70
2023/06/18 04:13:17;;;;;;;12.00;6.70;;;;;;;17.18;100.00;98806.47;5111793;28;20200;-68
2023/06/18 04:15:44;;;;;;;17.43;7.37;;;;;;;17.20;100.00;98810.53;5112029;28;20230;-69
2023/06/18 04:18:11;;;;;;;15.40;7.23;;;;;;;17.28;100.00;98814.91;5111430;27;20195;-69
2023/06/18 04:20:38;;;;;;;17.20;8.20;;;;;;;17.38;100.00;98818.13;5112371;28;20668;-68
2023/06/18 04:23:06;;;;;;;15.83;7.70;;;;;;;17.43;100.00;98828.78;5111624;28;20467;-70
2023/06/18 04:25:32;;;;;;;12.43;7.20;;;;;;;17.51;100.00;98832.34;5111812;28;20221;-68
2023/06/18 04:28:01;;;;;;;16.10;8.00;;;;;;;17.54;100.00;98826.84;5112026;28;20197;-68
2023/06/18 04:30:28;;;;;;;17.33;8.40;;;;;;;17.62;100.00;98825.06;5111740;28;20208;-70
2023/06/18 04:32:55;;;;;;;12.93;7.50;;;;;;;17.71;100.00;98832.81;5111358;28;20616;-70
2023/06/18 04:35:21;;;;;;;12.80;7.07;;;;;;;17.73;100.00;98836.06;5111539;28;20210;-68
2023/06/18 04:37:48;;;;;;;14.37;7.80;;;;;;;17.78;100.00;98833.84;5111547;28;20669;-68
2023/06/18 04:40:15;;;;;;;13.30;8.10;;;;;;;17.83;100.00;98842.72;5111455;28;20289;-70
2023/06/18 04:42:42;;;;;;;13.20;7.27;;;;;;;17.87;100.00;98848.38;5111587;28;20208;-68
2023/06/18 04:45:11;;;;;;;13.33;7.80;;;;;;;17.89;100.00;98846.44;5111493;28;20280;-68
2023/06/18 04:47:40;;;;;;;18.00;7.57;;;;;;;17.87;100.00;98854.34;5111291;28;20198;-68
2023/06/18 04:50:08;;;;;;;13.63;7.53;;;;;;;17.95;100.00;98856.13;5111352;28;20207;-70
2023/06/18 04:52:35;;;;;;;13.83;7.57;;;;;;;17.99;100.00;98857.41;5111401;28;20204;-68
2023/06/18 04:55:02;;;;;;;17.53;8.07;;;;;;;17.96;100.00;98859.50;5111303;28;20257;-70
2023/06/18 04:57:29;;;;;;;17.30;7.40;;;;;;;18.06;100.00;98858.38;5110853;28;20227;-69
2023/06/18 04:59:55;;;;;;;15.60;7.70;;;;;;;18.11;100.00;98868.22;5111055;28;20229;-70
2023/06/18 05:02:24;;;;;;;15.37;8.00;;;;;;;18.13;100.00;98868.88;5110742;28;20700;-68
2023/06/18 05:04:51;;;;;;;19.23;7.83;;;;;;;18.13;100.00;98863.69;5111084;28;20207;-70
2023/06/18 05:07:18;;;;;;;15.47;7.87;;;;;;;18.17;100.00;98864.97;5110725;28;20231;-68
2023/06/18 05:09:45;;;;;;;15.13;7.87;;;;;;;18.23;100.00;98872.06;5110882;28;20193;-68
2023/06/18 05:12:12;;;;;;;14.40;7.57;;;;;;;18.31;100.00;98872.06;5110675;28;20237;-68
2023/06/18 05:14:38;;;;;;;14.93;7.93;;;;;;;18.33;100.00;98875.28;5110816;28;20255;-70
2023/06/18 05:17:06;;;;;;;16.93;7.57;;;;;;;18.41;100.00;98876.22;5110414;28;20222;-68
2023/06/18 05:19:34;;;;;;;16.10;7.50;;;;;;;18.46;100.00;98879.13;5110910;28;20206;-70
2023/06/18 05:22:01;;;;;;;16.17;8.13;;;;;;;18.51;100.00;98882.84;5110311;28;20275;-70
2023/06/18 05:24:28;;;;;;;13.43;7.77;;;;;;;18.46;100.00;98884.31;5111021;28;20194;-68
2023/06/18 05:26:54;;;;;;;17.20;7.93;;;;;;;18.40;100.00;98888.38;5110594;28;20234;-68
2023/06/18 05:29:21;;;;;;;15.17;7.90;;;;;;;18.44;100.00;98886.25;5109910;28;20257;-70
2023/06/18 05:31:48;;;;;;;13.20;6.93;;;;;;;18.52;100.00;98888.81;5110561;28;20227;-70
2023/06/18 05:34:15;;;;;;;14.60;8.47;;;;;;;18.53;100.00;98895.63;5110395;28;20210;-70
2023/06/18 05:36:43;;;;;;;16.37;7.67;;;;;;;18.58;100.00;98902.88;5110276;28;20750;-68
2023/06/18 05:39:10;;;;;;;14.67;8.57;;;;;;;18.61;100.00;98903.34;5110707;28;20224;-70
2023/06/18 05:41:37;;;;;;;13.17;7.60;;;;;;;18.56;100.00;98905.66;5110166;28;20247;-71
2023/06/18 05:44:04;;;;;;;11.83;7.43;;;;;;;18.42;100.00;98908.94;5110421;28;20205;-69
2023/06/18 05:46:30;;;;;;;14.00;7.93;;;;;;;18.41;100.00;98910.69;5110244;28;20353;-68
2023/06/18 05:48:57;;;;;;;13.77;7.50;;;;;;;18.42;100.00;98919.28;5110242;28;20201;-68
2023/06/18 05:51:24;;;;;;;15.73;8.40;;;;;;;18.47;100.00;98922.16;5110504;28;20632;-70
2023/06/18 05:53:52;;;;;;;13.57;7.97;;;;;;;18.57;100.00;98922.81;5109902;28;20699;-70
2023/06/18 05:56:19;;;;;;;15.03;8.80;;;;;;;18.64;100.00;98921.16;5110331;28;20227;-70
2023/06/18 05:58:48;;;;;;;15.27;8.63;;;;;;;18.76;100.00;98922.47;5109907;28;20410;-70
2023/06/18 06:01:15;;;;;;;19.67;9.33;;;;;;;18.84;100.00;98929.38;5109971;28;20244;-70
2023/06/18 06:03:41;;;;;;;15.83;9.13;;;;;;;18.84;100.00;98928.56;5110166;28;20245;-71
2023/06/18 06:06:08;;;;;;;14.20;8.47;;;;;;;18.95;100.00;98935.97;5110334;28;20219;-68
2023/06/18 06:08:35;;;;;;;20.27;9.13;;;;;;;19.20;100.00;98934.91;5110256;28;20202;-70
2023/06/18 06:11:03;;;;;;;15.80;8.53;;;;;;;19.55;100.00;98937.94;5109974;28;20224;-68
2023/06/18 06:13:30;;;;;;;14.93;9.03;;;;;;;19.84;100.00;98934.69;5110273;28;20564;-69
2023/06/18 06:15:57;;;;;;;16.03;8.50;;;;;;;19.86;100.00;98944.88;5109875;28;20228;-68
2023/06/18 06:18:24;;;;;;;16.27;9.33;;;;;;;20.04;100.00;98950.59;5109675;28;20208;-70
2023/06/18 06:20:50;;;;;;;14.33;8.37;;;;;;;20.11;100.00;98954.09;5110124;28;20637;-69
2023/06/18 06:23:17;;;;;;;20.57;7.93;;;;;;;20.16;100.00;98957.94;5109908;28;20690;-69
2023/06/18 06:25:44;;;;;;;12.63;8.10;;;;;;;20.18;100.00;98955.97;5109977;28;20579;-70
2023/06/18 06:28:12;;;;;;;12.23;8.17;;;;;;;20.28;100.00;98959.13;5109810;28;20201;-68
2023/06/18 06:30:39;;;;;;;15.77;7.80;;;;;;;20.37;100.00;98962.47;5110115;28;20708;-70
2023/06/18 06:33:05;;;;;;;14.70;8.27;;;;;;;20.38;100.00;98967.47;5110134;28;20207;-68
2023/06/18 06:35:32;;;;;;;15.40;8.10;;;;;;;20.52;100.00;98961.53;5110068;28;20296;-68
2023/06/18 06:37:59;;;;;;;11.47;7.30;;;;;;;20.71;100.00;98964.56;5109654;28;20209;-68
2023/06/18 06:40:26;;;;;;;12.60;7.77;;;;;;;20.86;100.00;98962.00;5111189;28;20317;-68
2023/06/18 06:42:53;;;;;;;11.53;7.23;;;;;;;21.08;100.00;98960.25;5113763;28;20205;-70
2023/06/18 06:45:21;;;;;;;13.40;8.53;;;;;;;21.38;100.00;98961.84;5113938;28;20588;-70
2023/06/18 06:47:48;;;;;;;11.15;7.22;;;;;;;21.73;100.00;98964.63;5113602;28;20255;-70
2023/06/18 06:50:15;;;;;;;11.87;7.63;;;;;;;21.91;100.00;98972.78;5113628;28;20204;-68
2023/06/18 06:52:42;;;;;;;11.27;7.18;;;;;;;21.99;100.00;98978.84;5113255;28;20368;-68
2023/06/18 06:55:09;;;;;;;10.05;7.03;;;;;;;21.97;100.00;98975.63;5113549;28;20204;-70
2023/06/18 06:57:36;;;;;;;12.77;8.30;;;;;;;21.98;100.00;98982.44;5113291;28;20213;-70
2023/06/18 07:00:03;;;;;;;11.48;7.15;;;;;;;21.95;100.00;98990.63;5113825;28;20653;-69
2023/06/18 07:02:33;;;;;;;11.00;7.20;;;;;;;22.12;100.00;98991.97;5113274;28;20233;-68
2023/06/18 07:05:00;;;;;;;9.60;6.53;;;;;;;22.14;100.00;98987.41;5113523;28;20201;-68
2023/06/18 07:07:27;;;;;;;13.95;7.65;;;;;;;22.12;100.00;98989.38;5113195;28;20537;-68
2023/06/18 07:09:54;;;;;;;10.95;7.13;;;;;;;22.24;100.00;98985.28;5113154;28;20201;-70
2023/06/18 07:12:20;;;;;;;12.75;7.28;;;;;;;22.36;100.00;98988.19;5112746;28;20222;-70
2023/06/18 07:14:47;;;;;;;11.82;7.38;;;;;;;22.36;100.00;98991.59;5113295;28;20562;-68
2023/06/18 07:17:14;;;;;;;12.05;7.40;;;;;;;22.43;100.00;98994.28;5112845;28;20221;-68
2023/06/18 07:19:42;;;;;;;11.60;6.65;;;;;;;22.59;100.00;99001.78;5113031;28;20202;-68
2023/06/18 07:22:09;;;;;;;10.07;6.68;;;;;;;22.63;100.00;98998.78;5112816;27;20241;-68
2023/06/18 07:24:36;;;;;;;9.07;6.45;;;;;;;22.71;100.00;98994.22;5113202;28;20207;-68
2023/06/18 07:27:03;;;;;;;12.68;7.07;;;;;;;22.78;100.00;99002.91;5112734;28;20243;-68
2023/06/18 07:29:31;;;;;;;13.25;6.50;;;;;;;22.86;100.00;98995.91;5112793;28;20292;-70
2023/06/18 07:31:57;;;;;;;8.63;6.35;;;;;;;22.97;100.00;98984.97;5112728;28;20218;-68
2023/06/18 07:34:24;;;;;;;10.68;6.75;;;;;;;22.90;100.00;98991.94;5112730;28;20376;-68
2023/06/18 07:36:52;;;;;;;9.13;6.18;;;;;;;22.98;100.00;98984.81;5112538;28;20224;-68
2023/06/18 07:39:19;;;;;;;8.82;5.90;;;;;;;22.97;100.00;98987.59;5112765;28;20258;-68
2023/06/18 07:41:47;;;;;;;8.70;5.97;;;;;;;23.11;100.00;98989.25;5112342;28;20243;-68
2023/06/18 07:44:14;;;;;;;8.55;6.22;;;;;;;23.11;100.00;98985.84;5112358;27;20571;-70
2023/06/18 07:46:42;;;;;;;8.63;5.93;;;;;;;23.27;100.00;98988.13;5112822;28;20222;-68
2023/06/18 07:49:09;;;;;;;7.82;5.65;;;;;;;23.37;100.00;98987.75;5112638;28;20202;-68
2023/06/18 07:51:36;;;;;;;8.88;5.72;;;;;;;23.54;100.00;98994.25;5111857;28;20321;-70
2023/06/18 07:54:04;;;;;;;8.63;5.72;;;;;;;23.86;100.00;98999.75;5112017;28;20200;-68
2023/06/18 07:56:31;;;;;;;8.23;5.35;;;;;;;23.98;100.00;98994.75;5112565;28;20286;-68
2023/06/18 07:58:57;;;;;;;8.38;5.65;;;;;;;24.12;100.00;98997.16;5112278;28;20217;-70
2023/06/18 08:01:24;;;;;;;8.82;5.75;;;;;;;24.43;100.00;98993.16;5112094;28;20249;-68
2023/06/18 08:03:51;;;;;;;9.45;6.03;;;;;;;24.57;100.00;98999.97;5111970;28;20207;-68
2023/06/18 08:06:18;;;;;;;7.57;5.32;;;;;;;24.73;100.00;99011.03;5110793;28;20213;-70
2023/06/18 08:08:48;;;;;;;8.50;5.82;;;;;;;24.83;100.00;99008.78;5111277;28;20201;-70
2023/06/18 08:11:17;;;;;;;7.47;5.43;;;;;;;25.07;100.00;99005.50;5112027;28;20295;-72
2023/06/18 08:13:44;;;;;;;15.90;9.27;;;;;;;25.37;100.00;99010.25;5111068;28;20197;-69
2023/06/18 08:16:11;;;;;;;12.20;8.25;;;;;;;25.48;100.00;99009.59;5110883;28;20353;-69
2023/06/18 08:18:37;;;;;;;15.63;10.02;;;;;;;25.66;100.00;99013.31;5110952;28;20235;-71
2023/06/18 08:21:05;;;;;;;11.45;8.55;;;;;;;25.64;100.00;99010.09;5111903;28;20294;-72
2023/06/18 08:23:31;;;;;;;11.20;6.95;;;;;;;25.47;99.52;99015.00;5111910;28;20201;-72
2023/06/18 08:25:58;;;;;;;11.77;7.60;;;;;;;25.42;99.20;99015.63;5111515;28;20217;-69
2023/06/18 08:28:26;;;;;;;18.15;9.52;;;;;;;25.76;100.00;99018.88;5111626;28;20212;-74
2023/06/18 08:30:53;;;;;;;9.75;6.47;;;;;;;25.88;97.49;99017.22;5112105;28;20778;-74
2023/06/18 08:33:20;;;;;;;8.68;5.97;;;;;;;25.96;100.00;99011.72;5111812;28;20246;-71
2023/06/18 08:35:47;;;;;;;11.50;7.80;;;;;;;26.34;100.00;99015.28;5111525;28;20221;-74
2023/06/18 08:38:13;;;;;;;7.55;5.63;;;;;;;26.74;100.00;99014.94;5111643;27;20251;-75
2023/06/18 08:40:50;;;;;;;10.02;5.57;;;;;;;26.97;96.94;99019.53;5111500;28;20221;-72
2023/06/18 08:43:21;;;;;;;15.40;6.88;;;;;;;26.94;88.68;99030.47;5111255;28;20239;-75
2023/06/18 08:45:52;;;;;;;14.50;9.85;;;;;;;27.22;97.55;99028.13;5111400;27;20717;-74
2023/06/18 08:48:21;;;;;;;13.20;9.40;;;;;;;27.35;94.41;99021.13;5111336;28;20201;-75
2023/06/18 08:50:50;;;;;;;7.75;5.85;;;;;;;27.29;91.38;99023.63;5111485;28;20217;-73
2023/06/18 08:53:26;;;;;;;13.80;8.95;;;;;;;27.41;89.50;99033.38;5110846;28;20633;-71
2023/06/18 08:55:53;;;;;;;14.95;10.35;;;;;;;27.59;89.86;99028.06;5111040;28;20374;-74
2023/06/18 08:58:25;;;;;;;14.38;10.30;;;;;;;27.66;88.23;99028.78;5110898;28;20588;-73
2023/06/18 09:00:54;;;;;;;11.30;8.00;;;;;;;27.68;85.89;99029.34;5110917;28;20221;-78
2023/06/18 09:03:21;;;;;;;10.25;7.45;;;;;;;27.72;86.65;99019.19;5109018;28;20309;-70
2023/06/18 09:05:48;;;;;;;15.07;8.70;;;;;;;27.91;88.87;99019.97;5108750;28;20218;-69
2023/06/18 09:08:16;;;;;;;12.75;8.55;;;;;;;27.88;87.15;99015.97;5108904;28;20246;-70
2023/06/18 09:10:43;;;;;;;8.20;5.20;;;;;;;28.08;87.53;99015.66;5108669;28;20229;-71
2023/06/18 09:13:09;;;;;;;8.93;6.63;;;;;;;28.12;83.79;99014.19;5108631;28;20197;-70
2023/06/18 09:15:36;;;;;;;8.98;5.25;;;;;;;28.51;87.88;99019.03;5108825;28;20285;-70
2023/06/18 09:18:05;;;;;;;10.07;7.28;;;;;;;28.53;82.09;99009.88;5109902;28;20198;-68
2023/06/18 09:20:36;;;;;;;6.18;4.55;;;;;;;28.58;87.11;99020.53;5110790;28;20221;-73
2023/06/18 09:23:08;;;;;;;10.45;6.50;;;;;;;28.48;81.39;99015.06;5110740;28;20740;-71
2023/06/18 09:25:35;;;;;;;8.52;5.78;;;;;;;28.50;82.37;99015.59;5110938;28;20222;-74
2023/06/18 09:28:03;;;;;;;6.72;5.35;;;;;;;28.37;80.89;99013.19;5110570;28;20281;-69
2023/06/18 09:30:30;;;;;;;8.63;6.18;;;;;;;28.40;80.45;99012.72;5110812;28;20247;-70
2023/06/18 09:32:59;;;;;;;14.25;9.25;;;;;;;28.36;77.62;99022.09;5110649;28;20208;-68
2023/06/18 09:35:28;;;;;;;5.30;3.72;;;;;;;28.63;80.92;99007.47;5110992;28;20208;-68
2023/06/18 09:37:54;;;;;;;9.30;4.57;;;;;;;28.76;84.07;99010.91;5110162;28;20201;-72
2023/06/18 09:40:22;;;;;;;11.07;7.00;;;;;;;28.95;78.57;99015.00;5110397;28;20201;-69
2023/06/18 09:42:50;;;;;;;16.02;9.73;;;;;;;29.22;78.73;99017.13;5110479;28;20285;-72
2023/06/18 09:45:18;;;;;;;20.85;14.38;;;;;;;29.03;77.67;99014.66;5110802;28;20204;-69
2023/06/18 09:47:47;;;;;;;13.50;7.57;;;;;;;29.02;79.27;99013.03;5110300;28;20189;-69
2023/06/18 09:50:14;;;;;;;7.40;4.60;;;;;;;28.75;75.02;99009.31;5110421;27;20329;-72
2023/06/18 09:52:48;;;;;;;37.92;25.83;;;;;;;28.93;74.84;99013.63;5109966;28;20193;-69
2023/06/18 09:55:31;;;;;;;48.67;29.48;;;;;;;29.06;77.96;99011.56;5110553;28;20198;-73
2023/06/18 09:57:59;;;;;;;29.30;14.85;;;;;;;28.94;75.21;99009.94;5110318;28;20707;-72
2023/06/18 10:00:27;;;;;;;5.30;3.90;;;;;;;29.23;85.19;99014.25;5110476;28;20204;-72
2023/06/18 10:02:54;;;;;;;6.20;4.40;;;;;;;29.43;80.25;99011.19;5109801;28;20235;-73
2023/06/18 10:05:21;;;;;;;6.82;5.65;;;;;;;29.52;78.81;99008.97;5110012;28;20252;-74
2023/06/18 10:07:50;;;;;;;9.27;6.60;;;;;;;29.90;80.53;99012.81;5111294;28;20245;-74
2023/06/18 10:10:18;;;;;;;10.50;5.38;;;;;;;30.03;75.93;99014.34;5111914;28;20680;-75
2023/06/18 10:12:49;;;;;;;4.18;3.00;;;;;;;30.24;75.54;99005.75;5109835;28;20197;-74
2023/06/18 10:15:19;;;;;;;7.95;5.00;;;;;;;30.35;75.65;99011.97;5111131;28;20198;-70
2023/06/18 10:17:52;;;;;;;7.95;5.95;;;;;;;30.28;70.36;99012.13;5114236;28;20190;-69
2023/06/18 10:20:19;;;;;;;8.68;5.50;;;;;;;30.29;66.85;99002.38;5114347;28;20270;-74
2023/06/18 10:22:50;;;;;;;15.05;7.97;;;;;;;30.44;69.73;99011.31;5113851;28;20273;-72
2023/06/18 10:25:51;;;;;;;11.77;7.47;;;;;;;30.44;67.25;99000.75;5087294;28;20574;-74
2023/06/18 10:28:19;;;;;;;7.40;4.78;;;;;;;30.15;67.98;98996.59;5087288;28;20202;-69
2023/06/18 10:30:46;;;;;;;8.88;5.97;;;;;;;29.88;70.63;98997.25;5087060;28;20218;-70
2023/06/18 10:33:13;;;;;;;6.63;4.85;;;;;;;29.89;69.85;99004.13;5087575;28;20224;-69
2023/06/18 10:35:40;;;;;;;24.13;14.63;;;;;;;29.80;72.92;99000.28;5087264;28;20296;-69
2023/06/18 10:38:07;;;;;;;5.88;4.57;;;;;;;29.47;64.49;98991.25;5087531;28;20202;-68
2023/06/18 10:40:38;;;;;;;5.82;4.60;;;;;;;29.61;71.41;98983.84;5087934;28;20693;-71
2023/06/18 10:43:10;;;;;;;4.35;3.35;;;;;;;29.38;65.97;98987.41;5087806;28;20693;-68
2023/06/18 10:45:36;;;;;;;4.80;3.53;;;;;;;29.60;74.32;98978.81;5087768;28;20225;-73
2023/06/18 10:48:18;;;;;;;4.32;3.63;;;;;;;29.61;68.58;98981.19;5087188;28;20244;-70
2023/06/18 10:51:12;;;;;;;5.13;3.55;;;;;;;29.40;64.72;98968.72;5086963;28;20226;-74
2023/06/18 10:53:39;;;;;;;11.20;7.85;;;;;;;29.71;67.04;98964.81;5086375;28;20275;-69
2023/06/18 10:56:06;;;;;;;6.28;4.20;;;;;;;29.96;69.18;98973.13;5087017;28;20222;-71
2023/06/18 10:58:37;;;;;;;5.72;4.10;;;;;;;29.86;65.17;98975.59;5086574;28;20195;-75
2023/06/18 11:01:05;;;;;;;3.75;2.80;;;;;;;29.82;70.99;98956.03;5086804;28;20214;-70
2023/06/18 11:03:36;;;;;;;5.28;3.00;;;;;;;29.60;67.52;98955.09;5086342;28;20244;-75
2023/06/18 11:06:09;;;;;;;5.32;3.78;;;;;;;29.81;73.70;98949.16;5086709;28;20623;-72
2023/06/18 11:08:37;;;;;;;6.60;3.20;;;;;;;29.93;65.81;98947.25;5086617;28;20194;-70
2023/06/18 11:11:06;;;;;;;4.15;3.20;;;;;;;30.07;72.80;98946.91;5086407;28;20236;-74
2023/06/18 11:13:40;;;;;;;4.85;3.70;;;;;;;29.98;65.77;98935.97;5086071;28;20202;-69
2023/06/18 11:16:14;;;;;;;8.02;5.07;;;;;;;30.29;72.73;98944.38;5086501;28;20279;-70
2023/06/18 11:18:41;;;;;;;4.60;3.10;;;;;;;30.38;64.52;98956.88;5086145;28;20286;-73
2023/06/18 11:21:15;;;;;;;3.55;3.00;;;;;;;30.45;65.63;98949.56;5086220;28;20218;-70
2023/06/18 11:23:42;;;;;;;6.57;3.38;;;;;;;30.43;62.18;98946.41;5086083;28;20210;-72
2023/06/18 11:26:14;;;;;;;8.43;5.68;;;;;;;30.61;65.67;98947.16;5086206;28;20218;-72